Date,TemperatureHighF,TemperatureAvgF,TemperatureLowF,DewpointHighF,DewpointAvgF,DewpointLowF,HumidityHigh,HumidityAvg,HumidityLow,PressureMaxIn,PressureMinIn,WindSpeedMaxMPH,WindSpeedAvgMPH,GustSpeedMaxMPH,PrecipitationSumIn
2013-1-1,17.8,2.7,-16.2,15.4,-1.1,-20.8,95,84,78,30.16,29.82,8,2,8,0.00
2013-1-2,23.5,17.5,9.4,21.2,14.7,6.2,91,88,86,30.08,29.77,9,3,9,0.00
2013-1-3,20.8,11.0,-1.3,16.0,7.2,-5.0,97,84,80,30.16,29.82,12,4,12,0.00
2013-1-4,28.7,17.1,1.8,19.2,11.4,-2.4,92,78,67,30.04,29.84,9,1,9,0.00
2013-1-5,26.5,10.4,-1.4,20.3,6.2,-5.3,96,83,74,30.01,29.85,6,0,6,0.00
2013-1-6,20.3,11.4,-1.1,15.1,7.0,-5.3,92,82,74,30.12,29.73,9,1,10,0.00
2013-1-7,35.0,23.6,13.3,26.3,18.5,10.1,92,81,69,29.84,29.61,13,4,13,0.01
2013-1-8,31.0,20.4,5.6,27.2,17.0,2.3,93,87,79,29.83,29.59,12,2,12,0.00
2013-1-9,30.2,24.6,21.2,26.1,19.2,15.8,89,80,72,30.19,29.64,17,5,17,0.00
2013-1-10,47.9,34.5,21.5,30.7,24.9,16.3,92,70,44,30.06,29.57,20,6,20,0.45
2013-1-11,34.2,31.5,20.6,32.7,29.8,18.3,94,93,91,29.57,29.32,8,0,8,0.21
2013-1-12,20.4,5.6,-6.0,18.2,1.7,-10.1,92,84,79,30.06,29.33,9,3,9,0.00
2013-1-13,9.4,-1.6,-9.4,3.6,-6.1,-13.6,92,81,72,30.13,30.00,6,1,6,0.00
2013-1-14,12.3,4.1,-1.1,5.4,-0.8,-5.0,91,80,70,30.23,30.11,9,2,9,0.00
2013-1-15,24.0,13.6,1.0,17.1,7.7,-2.7,94,77,63,30.11,29.47,12,5,12,0.00
2013-1-16,26.6,10.6,-5.6,24.6,3.8,-12.8,92,74,54,30.20,29.44,12,4,12,0.00
2013-1-17,8.1,0.3,-6.7,-0.3,-5.9,-13.0,89,75,65,30.29,30.12,8,1,8,0.00
2013-1-18,19.7,13.3,3.2,15.7,9.5,-1.9,87,84,79,30.12,29.65,7,1,7,0.00
2013-1-19,25.5,8.9,-10.0,23.5,4.8,-14.6,92,83,78,30.19,29.56,16,5,16,0.00
2013-1-20,0.3,-10.2,-18.5,-5.9,-15.5,-23.5,83,77,67,30.25,30.18,8,2,8,0.00
2013-1-21,-9.0,-17.1,-22.4,-17.5,-23.1,-28.1,89,73,64,30.21,30.15,10,2,10,0.00
2013-1-22,0.0,-14.4,-28.1,-9.1,-20.6,-33.7,92,73,63,30.24,30.08,7,1,7,0.00
2013-1-23,1.0,-8.3,-23.4,-2.4,-14.6,-29.3,86,73,59,30.58,30.02,10,3,10,0.00
2013-1-24,3.6,-9.1,-24.3,-1.6,-15.1,-30.1,82,74,63,30.57,29.94,12,3,12,0.00
2013-1-25,8.3,2.1,-13.1,4.7,-3.5,-18.1,85,77,66,30.25,29.78,10,3,10,0.00
2013-1-26,14.6,2.2,-15.8,5.0,-3.8,-20.8,84,76,64,30.25,30.00,8,1,8,0.00
2013-1-27,28.3,17.8,3.8,22.4,11.5,-0.6,87,77,65,30.02,29.76,5,0,5,0.01
2013-1-28,33.7,29.6,26.8,30.5,26.5,22.0,92,88,82,29.78,29.64,6,0,6,0.03
2013-1-29,28.1,22.6,11.1,26.0,19.7,7.2,92,89,83,29.83,29.56,9,0,9,0.00
2013-1-30,11.2,5.4,-1.6,7.3,1.0,-5.8,94,82,75,29.82,29.70,8,3,9,0.00
2013-1-31,-1.6,-9.0,-23.0,-4.0,-14.6,-28.7,92,76,68,30.16,29.75,12,4,12,0.00
2013-2-1,-1.9,-15.9,-35.9,-8.6,-22.1,-41.9,80,73,65,30.16,29.98,2,0,2,0.00
2013-2-2,9.9,-3.8,-23.6,2.1,-9.6,-29.2,84,76,61,30.09,29.90,8,1,8,0.00
2013-2-3,9.8,0.5,-17.3,-1.8,-6.5,-23.5,83,72,56,29.99,29.92,9,2,9,0.00
2013-2-4,13.7,-2.7,-24.9,8.5,-8.8,-30.6,92,75,59,29.99,29.50,9,2,9,0.00
2013-2-5,17.0,9.7,-0.9,14.7,3.9,-6.0,91,78,59,29.98,29.50,8,1,8,0.00
2013-2-6,17.4,10.9,-1.6,14.3,7.4,-6.5,92,85,79,30.06,29.89,4,0,4,0.00
2013-2-7,24.4,13.1,-5.9,15.5,7.9,-11.1,89,79,67,30.25,30.06,4,0,4,0.11
2013-2-8,28.1,8.9,-9.9,18.9,3.5,-14.6,92,79,68,30.27,30.03,8,2,8,0.00
2013-2-9,29.3,23.8,15.4,25.6,20.7,10.3,92,88,79,30.03,29.86,8,2,8,0.00
2013-2-10,26.7,25.3,21.9,24.8,23.3,19.8,93,92,91,29.87,29.47,12,2,12,0.00
2013-2-11,21.8,15.6,-4.4,19.8,12.4,-9.3,100,87,77,29.90,29.52,12,4,12,0.00
2013-2-12,31.5,20.8,2.8,22.8,16.4,0.3,91,83,68,29.87,29.66,8,2,8,0.01
2013-2-13,34.4,23.2,5.8,27.0,18.9,2.1,92,84,72,29.67,29.55,5,0,5,0.03
2013-2-14,21.2,11.5,1.4,15.0,5.2,-3.4,90,76,50,30.15,29.67,9,2,9,0.00
2013-2-15,13.3,2.1,-13.0,4.1,-3.7,-17.3,92,77,65,30.26,30.15,7,1,7,0.00
2013-2-16,19.7,8.9,1.4,8.6,2.6,-2.5,87,76,58,30.15,29.93,5,0,5,0.02
2013-2-17,30.0,22.1,8.7,23.7,17.0,4.5,92,81,76,29.93,29.49,13,6,13,0.00
2013-2-18,27.1,16.0,0.9,23.1,11.6,-3.9,90,82,74,29.93,29.43,14,4,14,0.00
2013-2-19,5.9,-4.0,-19.2,-3.7,-11.3,-25.3,81,71,60,30.37,29.93,9,3,9,0.00
2013-2-20,14.9,-6.8,-28.0,-1.4,-15.8,-33.9,80,65,45,30.44,30.34,4,0,4,0.00
2013-2-21,22.5,6.6,-14.0,9.0,-3.6,-20.2,83,63,42,30.42,30.15,5,0,5,0.01
2013-2-22,25.2,17.8,10.3,20.7,14.4,6.5,90,86,75,30.15,29.84,4,0,4,0.00
2013-2-23,27.5,16.0,5.1,22.0,12.0,0.5,91,84,75,29.90,29.80,4,0,4,0.00
2013-2-24,34.3,15.7,2.2,22.6,9.7,-1.7,89,78,58,29.99,29.90,4,0,4,0.13
2013-2-25,37.7,23.6,10.4,24.2,16.7,6.8,90,76,55,30.11,29.96,54,23,54,0.17
2013-2-26,40.1,19.4,2.1,23.7,11.9,-1.4,90,74,46,30.02,29.96,2,0,2,0.08
2013-2-27,38.5,23.4,6.7,24.0,15.3,3.1,91,73,50,30.12,29.98,9,2,9,0.01
2013-2-28,26.7,23.1,19.2,19.6,14.7,10.6,81,70,58,30.26,30.12,8,2,8,0.00
2013-3-1,30.1,18.3,-3.0,13.1,7.4,-10.6,72,63,45,30.37,30.26,5,0,5,0.00
2013-3-2,29.2,12.4,-12.8,13.4,0.9,-18.0,87,61,41,30.31,30.05,6,1,6,0.00
2013-3-3,34.1,25.6,12.5,14.2,10.2,4.2,76,53,38,30.05,29.90,9,2,9,0.00
2013-3-4,26.9,24.0,21.4,21.6,16.5,9.2,90,74,47,30.01,29.89,10,3,10,0.00
2013-3-5,28.4,22.2,17.2,23.0,18.4,14.0,90,86,73,30.31,30.00,6,1,6,0.12
2013-3-6,25.7,15.9,-3.6,14.2,9.2,-8.8,87,75,59,30.38,30.28,5,0,5,0.18
2013-3-7,31.4,13.0,-11.6,17.7,4.7,-16.3,92,70,56,30.31,30.17,9,1,9,0.02
2013-3-8,33.3,26.3,15.1,26.1,20.6,8.5,86,79,71,30.19,30.03,7,2,7,0.04
2013-3-9,30.3,29.3,23.8,28.3,27.0,20.2,92,91,87,30.03,29.86,6,0,6,0.17
2013-3-10,30.8,23.0,7.0,28.5,15.7,0.7,92,74,52,30.08,29.83,8,2,9,0.11
2013-3-11,27.6,11.4,-7.3,14.6,3.9,-11.8,88,72,51,30.01,29.74,4,0,4,0.02
2013-3-12,28.2,17.2,5.5,13.4,8.7,0.2,88,71,44,30.19,29.79,9,2,9,0.01
2013-3-13,29.6,14.6,-5.7,15.6,6.4,-10.0,92,71,51,30.30,30.10,4,1,4,0.01
2013-3-14,42.7,28.9,20.5,29.8,22.6,15.5,89,78,59,30.10,29.95,6,1,6,0.04
2013-3-15,26.6,19.2,8.5,22.6,13.2,4.5,86,77,56,30.03,29.91,7,2,7,0.00
2013-3-16,11.2,1.8,-13.1,4.4,-5.0,-19.5,87,73,60,30.22,30.02,10,2,10,0.03
2013-3-17,20.1,0.3,-26.5,14.1,-8.8,-32.3,88,66,49,30.22,29.67,10,2,10,0.00
2013-3-18,30.2,18.8,7.1,28.1,16.1,3.5,92,89,85,29.77,29.36,13,4,13,0.00
2013-3-19,14.6,5.7,-3.1,5.7,-1.3,-7.0,86,73,57,30.17,29.77,16,5,16,0.00
2013-3-20,1.3,-0.2,-1.0,-5.8,-6.9,-7.7,74,73,71,30.15,30.13,9,4,9,0.00
2013-3-21,26.1,16.1,-13.8,10.3,4.4,-17.7,85,60,49,30.08,30.01,5,1,5,0.10
2013-3-22,35.2,11.9,-16.3,19.1,2.0,-21.9,86,66,48,30.07,30.00,5,0,5,0.06
2013-3-23,36.7,23.3,6.7,21.2,14.7,2.2,89,71,53,30.12,30.06,4,0,4,0.00
2013-3-24,32.3,25.8,19.3,21.8,17.8,13.6,79,72,62,30.13,30.05,9,2,9,0.00
2013-3-25,35.9,26.4,16.4,19.8,15.9,10.7,81,65,49,30.24,30.12,9,2,9,0.00
2013-3-26,38.7,21.4,3.8,20.4,11.8,0.0,95,69,42,30.27,30.22,7,1,7,0.00
2013-3-27,41.9,23.7,0.5,21.8,12.1,-4.2,89,64,38,30.29,30.24,4,0,4,0.00
2013-3-28,45.8,30.1,14.4,25.1,18.6,8.4,92,65,39,30.27,30.20,5,0,5,0.00
2013-3-29,52.7,36.3,21.2,34.2,26.0,15.5,86,68,41,30.22,29.96,2,0,4,0.00
2013-3-30,48.1,37.4,30.5,34.9,29.8,25.4,92,75,56,29.96,29.81,8,2,8,0.01
2013-3-31,31.1,25.1,13.9,27.6,16.5,7.5,89,70,53,30.09,29.74,13,4,13,0.02
2013-4-1,28.0,17.0,5.0,13.5,7.7,1.1,95,68,46,30.22,30.09,12,2,12,0.00
2013-4-2,33.5,20.8,7.7,15.4,9.9,4.1,90,65,38,30.30,30.18,6,1,6,0.00
2013-4-3,41.7,25.7,3.8,31.2,16.6,-1.2,89,70,48,30.30,29.89,15,3,15,0.00
2013-4-4,36.9,30.1,21.1,30.5,21.5,13.2,90,71,49,30.20,29.91,9,2,9,0.00
2013-4-5,36.4,25.0,7.1,25.8,15.3,2.6,89,68,46,30.21,29.85,9,1,9,0.00
2013-4-6,36.9,32.6,30.3,33.4,29.0,25.6,92,87,82,29.85,29.61,8,1,8,0.31
2013-4-7,39.1,33.8,30.4,31.1,28.5,25.9,92,81,67,29.85,29.76,5,0,5,0.05
2013-4-8,37.2,32.0,21.3,32.7,27.5,14.6,94,84,63,30.16,29.77,8,2,8,0.31
2013-4-9,34.4,23.4,10.9,20.6,12.9,4.8,77,65,48,30.27,30.14,8,3,9,0.00
2013-4-10,42.7,31.3,19.0,21.8,15.9,12.0,77,54,33,30.29,30.01,7,1,7,0.00
2013-4-11,34.7,29.0,25.7,25.5,19.8,14.9,92,70,49,30.03,29.84,10,3,11,0.02
2013-4-12,33.2,28.2,25.3,26.1,23.6,22.1,91,83,66,29.84,29.79,7,2,7,0.28
2013-4-13,36.2,27.6,18.7,23.1,19.9,12.7,90,74,52,29.92,29.82,5,0,5,0.09
2013-4-14,42.8,27.7,9.5,29.9,19.1,5.6,92,72,42,29.92,29.51,10,3,10,0.00
2013-4-15,40.4,33.5,29.1,33.9,30.2,27.1,100,88,68,29.85,29.38,10,2,10,0.43
2013-4-16,37.5,32.8,28.8,29.6,26.2,23.3,92,78,58,30.32,29.86,5,1,5,0.05
2013-4-17,37.2,33.7,30.3,32.3,29.1,25.7,91,83,76,30.33,30.08,4,0,4,0.07
2013-4-18,36.7,32.6,29.8,30.2,27.0,23.4,93,80,63,30.08,29.72,12,3,12,0.09
2013-4-19,35.9,30.9,24.6,23.8,16.5,6.7,75,57,31,29.98,29.68,12,4,12,0.00
2013-4-20,40.3,26.7,10.7,18.5,12.3,6.6,88,58,31,30.18,29.98,5,0,5,0.00
2013-4-21,39.6,32.2,23.5,33.9,26.3,13.6,93,79,63,30.19,29.93,14,3,14,0.12
2013-4-22,37.9,31.1,25.7,26.7,23.0,19.1,89,73,55,30.26,30.08,7,2,7,0.00
2013-4-23,37.4,29.4,16.5,21.5,18.5,12.5,88,65,48,30.23,29.97,7,2,7,0.00
2013-4-24,43.4,30.8,13.7,29.7,22.3,9.8,92,72,44,29.97,29.81,8,1,8,0.00
2013-4-25,43.7,35.1,28.2,28.7,26.3,22.6,90,72,46,30.08,29.93,8,2,8,0.00
2013-4-26,62.9,45.0,29.7,36.9,30.5,24.9,87,60,32,30.07,29.88,7,1,7,0.00
2013-4-27,64.5,50.9,32.9,39.2,34.3,26.8,86,57,32,30.05,29.74,14,3,14,0.00
2013-4-28,64.0,51.7,40.8,47.8,38.8,31.4,78,62,44,29.80,29.59,9,2,9,0.00
2013-4-29,60.4,44.4,26.0,35.4,30.1,22.7,93,61,32,29.84,29.53,5,0,5,0.00
2013-4-30,59.4,46.4,35.1,47.7,38.5,29.1,94,75,47,29.96,29.27,18,5,18,0.12
2013-5-1,38.1,32.1,27.4,29.1,23.4,20.3,79,70,58,30.54,29.96,12,4,12,0.00
2013-5-2,35.4,29.4,22.3,23.6,22.0,18.0,92,74,59,30.62,30.49,7,2,7,0.00
2013-5-3,44.9,34.6,20.4,26.7,22.3,16.8,90,63,44,30.50,30.23,7,1,7,0.00
2013-5-4,38.4,36.3,33.3,36.0,32.2,24.8,93,86,61,30.25,30.22,5,1,5,0.24
2013-5-5,48.7,39.7,34.3,42.5,36.5,29.8,94,89,78,30.23,30.11,4,0,4,0.21
2013-5-6,65.8,47.3,29.5,50.2,39.8,26.5,95,77,55,30.12,30.01,7,1,7,0.00
2013-5-7,75.2,54.1,32.0,51.4,41.1,29.1,96,66,34,30.04,29.90,10,1,10,0.00
2013-5-8,78.5,54.7,38.1,54.6,43.6,34.4,95,70,34,30.08,29.93,6,1,6,0.13
2013-5-9,63.9,50.5,37.9,40.8,33.3,24.4,80,55,27,30.17,30.07,8,2,8,0.00
2013-5-10,53.3,39.3,31.2,38.8,29.6,25.6,85,69,46,30.18,29.95,8,1,8,0.00
2013-5-11,48.4,38.0,28.4,31.2,26.5,20.9,90,65,39,30.18,30.03,13,4,13,0.04
2013-5-12,56.1,38.8,20.2,31.7,22.9,15.7,92,58,29,30.21,30.04,9,1,9,0.00
2013-5-13,75.3,52.0,35.4,49.3,34.4,23.0,78,52,36,30.05,29.55,13,2,13,0.00
2013-5-14,85.8,62.9,40.1,56.9,48.0,37.0,92,63,26,29.74,29.43,20,5,20,0.07
2013-5-15,78.8,60.8,41.5,49.0,42.1,37.7,95,56,25,29.86,29.71,12,2,12,0.00
2013-5-16,76.6,59.0,36.9,46.8,39.6,33.4,94,54,27,29.97,29.86,6,0,6,0.01
2013-5-17,72.6,62.0,54.1,51.3,42.8,33.2,61,50,40,30.01,29.92,9,2,9,0.00
2013-5-18,59.0,55.3,52.5,55.6,50.5,41.9,95,84,59,29.94,29.81,8,1,8,0.29
2013-5-19,63.6,58.1,54.7,60.4,56.3,53.3,96,94,88,29.83,29.65,7,2,7,0.33
2013-5-20,54.7,53.3,49.4,53.3,51.9,47.9,96,95,95,29.66,29.53,8,3,8,0.93
2013-5-21,49.4,45.7,43.5,48.2,43.9,42.1,100,94,90,29.86,29.65,10,3,10,0.25
2013-5-22,72.3,57.2,45.0,48.5,42.6,32.3,91,63,24,30.11,29.84,10,3,10,0.00
2013-5-23,65.1,52.6,39.9,39.5,33.9,29.3,80,52,29,30.32,30.11,5,1,5,0.00
2013-5-24,67.3,51.9,34.3,47.0,37.3,31.0,94,62,31,30.32,30.19,9,1,9,0.03
2013-5-25,69.8,57.7,50.1,51.1,48.2,43.8,93,73,46,30.22,30.15,10,2,10,0.06
2013-5-26,72.5,58.6,47.2,46.8,41.7,35.9,76,56,33,30.20,30.05,12,2,12,0.00
2013-5-27,68.0,59.3,52.0,53.8,46.8,37.5,75,64,54,30.05,29.82,7,1,7,0.00
2013-5-28,70.4,60.8,54.7,57.6,52.6,47.2,90,75,62,29.82,29.66,5,1,5,0.00
2013-5-29,77.3,63.6,54.4,62.9,57.2,52.1,94,81,53,29.72,29.65,7,1,7,0.29
2013-5-30,77.6,65.8,58.7,67.8,61.1,56.7,96,86,64,29.66,29.47,8,1,8,0.11
2013-5-31,69.5,62.8,58.3,61.2,57.4,54.3,94,83,65,29.57,29.40,8,1,8,0.22
2013-6-1,58.2,49.6,43.8,55.0,44.6,38.4,94,83,73,30.07,29.57,12,3,12,0.06
2013-6-2,65.9,51.0,36.7,46.5,39.3,33.2,95,68,37,30.13,29.98,7,1,7,0.00
2013-6-3,64.2,51.3,32.9,45.7,36.4,29.5,95,61,31,30.07,29.99,4,0,4,0.00
2013-6-4,68.2,55.9,50.3,50.9,44.5,35.2,92,67,47,30.07,30.00,8,1,8,0.33
2013-6-5,53.8,50.8,47.5,52.1,48.7,44.4,95,93,88,30.09,30.01,8,1,8,0.34
2013-6-6,64.3,52.3,38.5,53.0,45.5,36.1,97,79,52,30.08,30.03,6,0,6,0.00
2013-6-7,69.9,54.7,41.4,52.2,47.2,39.3,95,78,50,30.04,29.89,5,0,5,0.00
2013-6-8,75.5,60.0,44.5,55.1,49.6,42.0,96,71,44,29.92,29.86,8,1,8,0.00
2013-6-9,58.5,55.3,51.7,56.2,52.5,48.3,95,90,80,29.93,29.84,4,0,4,0.23
2013-6-10,72.8,61.9,53.2,61.9,56.3,51.6,95,83,61,29.84,29.75,6,0,6,0.01
2013-6-11,79.4,65.4,52.7,56.9,51.2,44.3,95,65,31,29.91,29.79,5,0,5,0.00
2013-6-12,74.4,61.4,48.2,55.0,50.1,45.4,95,69,44,30.03,29.87,6,1,6,0.00
2013-6-13,77.8,61.6,47.1,58.1,50.8,43.9,94,70,45,30.15,30.03,8,0,8,0.00
2013-6-14,76.9,64.8,52.6,62.3,56.2,50.0,92,75,57,30.06,29.82,8,1,8,0.00
2013-6-15,81.0,69.2,55.7,60.6,53.4,45.6,89,61,32,29.90,29.76,9,2,9,0.00
2013-6-16,82.3,64.7,49.7,58.5,51.4,47.2,94,66,34,29.86,29.78,12,2,12,0.00
2013-6-17,73.2,61.8,52.1,60.4,54.5,48.1,94,78,60,30.07,29.85,7,1,7,0.00
2013-6-18,74.8,61.6,49.0,50.9,47.7,43.1,94,65,35,30.14,29.99,5,0,5,0.00
2013-6-19,85.1,74.1,59.0,63.7,58.8,51.0,84,61,40,30.00,29.89,5,1,5,0.00
2013-6-20,79.3,66.6,58.2,67.7,61.6,54.8,94,84,64,29.98,29.89,8,1,8,0.11
2013-6-21,82.0,71.1,61.5,69.3,63.9,59.5,95,80,53,29.98,29.75,7,1,7,0.23
2013-6-22,83.2,69.8,61.6,69.1,63.7,59.3,92,82,57,29.97,29.84,4,0,4,0.00
2013-6-23,77.0,67.6,61.5,67.6,61.2,54.8,96,81,56,29.86,29.61,13,2,13,0.00
2013-6-24,84.8,70.9,57.8,67.0,58.8,52.3,88,68,42,29.83,29.78,12,2,12,0.00
2013-6-25,87.2,73.5,59.0,72.2,65.4,57.0,95,78,54,29.78,29.67,7,1,7,0.00
2013-6-26,80.7,71.9,63.9,69.4,65.3,61.8,95,81,62,29.77,29.59,9,1,9,0.73
2013-6-27,81.6,69.5,60.2,67.4,61.3,57.6,95,77,49,29.81,29.75,9,2,9,0.21
2013-6-28,73.7,65.7,60.9,65.7,60.8,57.6,94,85,69,29.90,29.78,8,2,8,0.09
2013-6-29,77.2,67.1,56.5,63.9,58.3,51.9,94,75,45,30.04,29.88,7,1,7,0.10
2013-6-30,82.1,66.6,50.6,62.7,54.7,48.0,95,70,36,30.17,30.04,0,0,0,0.00
2013-7-1,82.7,67.3,51.4,65.3,55.8,48.6,95,70,38,30.23,30.16,0,0,0,0.00
2013-7-2,83.4,68.7,53.8,67.0,57.5,51.5,95,71,36,30.17,30.05,4,0,4,0.00
2013-7-3,85.7,70.2,57.2,68.1,60.7,54.8,95,75,44,30.05,29.90,7,0,7,0.00
2013-7-4,85.5,75.7,61.1,66.7,62.2,55.2,82,64,48,29.88,29.73,3,0,8,0.00
2013-7-5,85.0,75.5,62.1,71.3,65.3,56.5,84,71,57,29.88,29.70,3,0,7,0.00
2013-7-6,76.7,68.9,62.0,70.6,64.5,59.0,95,86,77,29.85,29.78,4,0,4,0.00
2013-7-7,84.7,71.4,60.4,72.8,64.3,55.4,95,79,62,29.95,29.81,4,0,4,0.00
2013-7-8,84.5,69.4,54.2,66.6,59.7,51.3,95,74,46,30.00,29.92,4,0,4,0.00
2013-7-9,73.2,66.4,59.8,68.7,62.3,54.3,95,87,70,29.97,29.80,8,1,8,0.72
2013-7-10,76.2,66.1,55.0,62.8,57.0,52.4,94,74,50,30.05,29.97,7,1,7,0.00
2013-7-11,83.6,68.9,53.6,68.3,59.8,51.4,95,75,51,30.06,29.87,8,2,8,0.00
2013-7-12,88.1,77.5,70.0,74.3,67.6,61.6,82,72,60,29.87,29.73,10,3,10,0.29
2013-7-13,85.9,77.1,68.7,75.7,70.9,66.1,95,82,63,30.02,29.83,4,0,4,0.01
2013-7-14,73.0,71.0,67.9,68.9,67.4,65.2,93,88,85,30.19,30.00,4,0,4,0.02
2013-7-15,78.7,69.7,65.6,72.7,66.8,63.8,95,91,79,30.21,30.11,5,0,5,0.06
2013-7-16,88.0,77.0,67.5,74.1,69.1,65.0,96,78,55,30.15,30.07,10,2,10,0.12
2013-7-17,82.0,72.1,62.5,72.5,66.1,60.0,94,82,68,30.21,30.08,4,0,4,0.00
2013-7-18,88.9,77.9,65.5,77.8,71.4,61.2,95,81,65,30.08,29.65,10,1,10,0.00
2013-7-19,78.5,70.1,58.6,69.2,61.5,53.8,91,75,52,29.89,29.67,8,2,8,0.00
2013-7-20,69.8,62.1,52.7,55.7,50.6,46.6,87,67,47,30.02,29.89,4,0,4,0.00
2013-7-21,77.7,67.9,50.1,66.8,59.9,47.4,95,77,60,29.97,29.68,6,1,6,0.00
2013-7-22,70.0,65.4,55.7,65.9,59.2,51.3,94,81,66,29.91,29.60,10,2,10,0.37
2013-7-23,70.6,59.0,48.3,56.9,51.0,45.8,94,76,52,30.06,29.90,5,0,5,0.00
2013-7-24,75.5,60.2,45.8,64.0,53.5,42.7,95,80,55,30.05,29.90,6,0,6,0.19
2013-7-25,74.3,62.3,52.3,65.8,57.0,50.0,95,84,62,29.94,29.85,13,1,13,0.28
2013-7-26,63.0,56.2,49.5,54.5,50.0,43.5,93,80,59,30.16,29.89,8,1,8,0.30
2013-7-27,67.0,54.2,41.1,52.1,45.8,37.2,95,75,49,30.15,30.00,8,1,8,0.00
2013-7-28,72.4,57.4,42.3,56.2,48.2,39.6,95,73,50,30.05,30.01,6,0,6,0.00
2013-7-29,75.7,60.5,45.0,60.7,52.3,42.1,95,76,53,30.08,30.02,6,1,6,0.00
2013-7-30,74.9,64.8,57.7,64.9,59.3,54.3,95,83,67,30.06,30.01,6,0,6,0.09
2013-7-31,71.3,61.2,52.3,57.6,53.2,48.8,95,77,55,30.04,29.98,8,1,10,0.00
2013-8-1,76.5,61.5,46.8,59.9,51.9,44.3,95,73,47,29.99,29.85,9,1,9,0.00
2013-8-2,72.5,60.1,47.3,58.0,51.2,44.8,95,75,50,30.05,29.88,6,0,6,0.00
2013-8-3,70.0,58.1,46.6,56.9,49.0,42.2,95,74,48,30.24,30.05,8,1,8,0.00
2013-8-4,72.5,59.0,41.7,55.7,48.7,38.3,95,71,45,30.26,29.94,4,0,4,0.00
2013-8-5,69.0,62.2,53.6,61.8,57.4,50.3,94,85,73,29.94,29.79,6,0,6,0.18
2013-8-6,66.8,58.6,50.6,63.6,55.4,46.9,95,89,77,29.86,29.73,5,0,5,0.10
2013-8-7,68.9,56.1,45.0,56.2,49.4,42.4,95,80,57,30.01,29.85,6,0,6,0.03
2013-8-8,68.0,57.7,46.3,57.3,51.6,43.2,94,81,63,30.04,29.98,4,0,4,0.01
2013-8-9,64.8,55.1,44.6,55.5,50.0,42.1,94,84,66,30.14,29.98,7,1,7,0.01
2013-8-10,74.5,60.0,45.8,59.6,52.2,43.2,95,78,47,30.19,30.06,2,0,2,0.01
2013-8-11,73.0,61.1,51.2,61.6,54.4,47.1,95,80,58,30.08,30.02,4,0,4,0.00
2013-8-12,72.6,59.3,47.1,59.4,50.7,42.4,95,75,46,30.13,30.03,6,1,6,0.00
2013-8-13,70.3,55.6,40.5,54.0,45.8,37.3,95,72,42,30.22,30.13,4,0,4,0.00
2013-8-14,75.0,57.7,43.7,57.1,47.9,40.6,95,73,41,30.19,30.06,4,0,4,0.00
2013-8-15,77.0,61.1,42.9,61.4,51.5,39.9,95,73,44,30.11,30.05,6,0,4,0.00
2013-8-16,80.0,66.8,54.2,63.8,57.4,50.6,95,74,52,30.12,30.08,7,1,7,0.00
2013-8-17,80.0,67.7,56.8,66.4,60.1,53.9,94,78,59,30.10,29.98,10,3,10,0.00
2013-8-18,82.7,71.8,62.6,70.2,64.5,59.4,90,78,62,30.00,29.87,13,3,13,0.00
2013-8-19,88.0,75.6,67.9,74.3,68.8,64.7,92,80,58,29.89,29.81,6,0,6,0.00
2013-8-20,92.2,78.2,65.6,75.8,69.1,63.2,96,76,47,29.83,29.72,9,2,9,0.00
2013-8-21,80.0,70.8,57.4,72.6,59.8,52.3,93,71,41,30.09,29.72,7,1,9,0.15
2013-8-22,75.0,62.8,47.9,58.6,52.0,44.8,95,71,40,30.19,30.08,7,0,7,0.01
2013-8-23,82.8,64.3,45.7,66.4,54.6,42.3,95,73,48,30.15,29.96,7,1,7,0.00
2013-8-24,88.5,82.9,71.0,73.9,71.9,68.9,93,70,59,29.89,29.71,12,4,12,0.00
2013-8-25,91.7,80.6,67.0,74.6,70.9,61.7,93,74,45,29.94,29.75,6,0,8,0.01
2013-8-26,88.3,73.9,61.5,78.3,68.3,58.8,96,84,60,29.97,29.86,4,0,4,0.13
2013-8-27,87.9,72.7,60.2,73.3,66.0,57.8,96,81,52,29.95,29.84,1,0,4,0.00
2013-8-28,88.5,74.3,64.0,75.5,68.5,60.1,96,84,58,30.02,29.93,1,0,5,0.00
2013-8-29,84.0,72.9,67.5,75.6,69.3,64.6,95,89,76,30.01,29.79,2,0,12,0.60
2013-8-30,80.4,69.3,60.6,68.7,64.0,58.6,95,84,63,30.01,29.86,0,0,2,0.00
2013-8-31,85.3,73.1,63.1,70.5,66.0,58.8,93,79,58,29.87,29.64,2,0,9,0.13
2013-9-1,63.4,59.2,56.1,61.0,54.7,50.5,93,85,72,30.04,29.74,1,0,5,0.01
2013-9-2,68.7,57.0,46.4,53.2,49.5,43.2,92,77,48,30.12,30.01,0,0,2,0.00
2013-9-3,81.3,62.2,44.8,64.9,55.2,42.9,96,80,53,30.02,29.92,1,0,6,0.00
2013-9-4,72.5,58.1,46.3,60.3,50.0,43.8,91,76,47,30.19,30.00,0,0,3,0.00
2013-9-5,79.3,60.2,42.9,66.7,53.7,40.4,96,81,59,30.22,30.03,4,0,4,0.00
2013-9-6,86.2,72.1,61.6,73.8,66.0,58.4,95,82,59,30.03,29.85,3,0,3,0.00
2013-9-7,80.9,69.0,59.6,69.2,61.9,53.1,95,80,51,30.11,29.89,4,0,4,0.00
2013-9-8,63.6,60.2,58.7,57.5,55.3,52.2,93,84,70,30.11,29.87,4,0,4,0.02
2013-9-9,71.3,64.8,59.0,68.3,62.8,57.0,96,93,89,29.87,29.62,4,0,2,0.49
2013-9-10,70.8,64.1,56.6,63.5,60.4,54.4,96,88,72,29.92,29.74,4,0,4,0.01
2013-9-11,77.5,62.1,48.7,61.6,55.3,46.5,95,81,42,30.13,29.88,11,1,11,0.01
2013-9-12,66.9,54.4,44.5,53.7,48.1,41.7,95,81,52,30.26,30.13,4,0,4,0.00
2013-9-13,70.9,54.8,40.2,56.4,47.4,37.9,96,78,54,30.24,29.97,5,1,5,0.00
2013-9-14,71.3,58.0,51.4,59.8,52.6,47.3,91,83,64,29.97,29.84,6,1,6,0.05
2013-9-15,59.4,51.6,39.6,53.1,46.4,37.2,93,83,59,30.32,29.94,4,0,4,0.04
2013-9-16,66.3,49.8,34.2,52.6,42.8,31.8,96,79,53,30.36,30.15,7,1,7,0.00
2013-9-17,62.0,54.9,46.3,56.3,50.5,41.9,93,85,76,30.15,29.85,9,2,9,0.00
2013-9-18,67.0,62.0,57.0,65.5,59.6,54.4,95,92,86,29.86,29.62,5,1,5,0.00
2013-9-19,70.0,64.7,57.2,66.6,62.2,54.3,96,92,83,29.79,29.58,5,0,5,0.06
2013-9-20,57.2,51.5,47.2,54.2,46.9,43.2,92,84,68,29.92,29.78,6,1,6,0.00
2013-9-21,58.2,47.5,37.3,45.4,41.0,35.2,92,79,55,30.00,29.89,2,0,2,0.00
2013-9-22,67.2,53.9,36.7,54.9,47.5,34.6,95,80,60,29.92,29.73,7,2,7,0.01
2013-9-23,73.0,62.7,56.5,57.8,54.0,52.3,88,74,52,29.83,29.73,9,2,9,0.00
2013-9-24,69.0,59.2,48.9,62.1,54.1,45.5,92,83,67,29.93,29.83,4,0,4,0.01
2013-9-25,71.6,57.3,45.6,60.7,51.7,43.5,96,82,63,29.92,29.82,5,0,5,0.00
2013-9-26,76.2,64.1,54.5,62.9,57.0,51.3,90,78,60,29.86,29.73,9,2,9,0.00
2013-9-27,73.8,65.4,55.7,66.9,61.0,52.8,94,86,77,29.80,29.67,7,1,7,0.04
2013-9-28,55.7,50.1,41.5,52.8,47.6,38.3,94,91,82,29.79,29.71,10,1,10,0.92
2013-9-29,72.0,54.7,39.6,53.8,46.5,37.8,96,76,46,29.82,29.58,8,1,8,0.00
2013-9-30,75.0,61.1,53.0,58.3,52.0,48.5,91,74,44,29.58,29.48,4,0,4,0.00
2013-10-1,66.8,57.6,43.8,55.6,44.5,35.9,93,64,36,29.90,29.47,12,2,12,0.00
2013-10-2,62.2,48.1,38.2,49.4,41.9,35.3,95,80,57,30.01,29.90,4,0,4,0.01
2013-10-3,59.9,47.9,35.7,50.8,43.2,33.3,95,84,69,30.08,29.95,4,0,4,0.01
2013-10-4,56.9,49.3,46.1,47.7,45.7,43.6,93,87,75,30.17,30.06,5,1,5,0.09
2013-10-5,47.4,45.1,43.8,46.0,43.6,42.2,95,94,93,30.08,29.82,5,1,5,0.71
2013-10-6,59.0,46.5,38.7,47.2,42.0,35.5,96,86,52,29.84,29.77,6,1,6,0.09
2013-10-7,61.0,44.5,32.0,46.9,37.8,29.9,95,79,49,29.94,29.79,6,0,6,0.01
2013-10-8,74.7,54.3,39.7,53.8,45.3,37.3,93,74,43,29.84,29.60,10,1,10,0.00
2013-10-9,71.8,53.0,38.3,54.3,44.4,35.9,96,75,37,29.99,29.76,1,0,1,0.00
2013-10-10,71.4,57.9,43.8,57.8,50.8,40.5,95,78,59,29.98,29.79,4,1,4,0.00
2013-10-11,69.1,60.6,55.1,56.6,53.6,51.1,93,78,61,29.79,29.42,13,2,13,0.65
2013-10-12,55.0,47.6,39.5,51.4,44.8,35.3,93,90,84,30.12,29.44,10,3,10,0.08
2013-10-13,56.1,41.2,31.4,41.8,33.1,26.9,95,75,45,30.37,30.12,5,0,5,0.01
2013-10-14,47.4,42.8,32.1,43.8,40.6,28.7,94,92,85,30.39,30.11,5,0,5,0.55
2013-10-15,43.3,41.8,37.0,41.2,39.7,32.8,94,92,85,30.12,29.92,5,1,5,0.23
2013-10-16,57.3,41.2,27.6,41.7,33.6,25.6,94,77,44,29.95,29.78,6,0,6,0.00
2013-10-17,42.9,40.0,32.2,41.0,37.4,29.5,93,91,87,29.89,29.76,4,0,4,0.12
2013-10-18,47.2,35.4,26.9,37.6,30.6,24.9,94,83,60,29.90,29.74,6,0,6,0.03
2013-10-19,37.0,34.3,31.3,35.2,31.8,28.7,94,91,83,29.74,29.65,4,0,4,0.05
2013-10-20,38.9,32.7,29.7,36.5,29.9,23.5,94,90,75,29.85,29.65,6,1,6,0.12
2013-10-21,32.4,29.3,25.1,29.2,26.0,21.5,90,87,82,29.91,29.83,7,2,7,0.01
2013-10-22,40.1,32.6,30.4,34.3,29.5,27.5,92,88,76,30.00,29.90,6,0,6,0.05
2013-10-23,31.5,29.7,27.6,27.8,23.6,21.1,90,78,68,30.07,29.95,5,1,5,0.00
2013-10-24,38.9,33.4,26.9,32.3,28.7,23.0,92,83,69,30.23,30.07,5,1,5,0.01
2013-10-25,53.9,38.4,24.9,39.6,30.3,22.4,93,75,49,30.22,29.64,13,3,13,0.01
2013-10-26,40.4,35.9,31.1,31.0,28.2,24.9,83,74,62,30.08,29.82,8,2,8,0.00
2013-10-27,44.2,35.7,28.3,32.3,28.0,20.2,92,74,62,30.29,29.69,6,1,6,0.00
2013-10-28,35.4,25.4,17.9,20.8,17.5,13.2,88,72,51,30.51,30.29,4,0,4,0.00
2013-10-29,38.4,27.4,18.6,26.5,21.4,14.5,94,78,58,30.44,30.09,2,0,2,0.00
2013-10-30,40.6,36.0,29.7,36.4,32.8,26.5,92,88,81,30.09,29.64,4,0,4,0.00
2013-10-31,38.8,37.4,35.8,37.2,35.6,34.0,94,93,92,29.64,29.38,4,0,4,0.02
2013-11-1,44.1,34.5,26.5,35.7,30.1,24.5,95,84,70,29.85,29.39,7,1,7,0.01
2013-11-2,47.5,29.4,19.8,34.9,24.4,17.1,93,82,60,30.01,29.85,1,0,4,0.00
2013-11-3,48.9,40.0,26.7,36.1,32.9,24.4,94,77,60,29.99,29.72,12,1,12,0.00
2013-11-4,45.0,38.5,29.2,38.0,32.5,22.9,92,79,68,29.99,29.68,7,1,7,0.14
2013-11-5,32.5,28.4,25.7,23.5,21.2,18.9,83,74,65,30.14,29.99,9,1,9,0.00
2013-11-6,32.7,23.3,14.1,22.4,16.9,10.2,90,77,62,30.11,30.02,4,0,4,0.00
2013-11-7,35.2,23.0,14.6,24.9,15.6,10.7,93,75,43,30.15,30.08,5,0,5,0.00
2013-11-8,35.1,28.2,17.5,31.6,25.5,14.8,93,90,78,30.08,29.54,5,0,5,0.01
2013-11-9,32.6,32.0,31.3,31.1,30.2,29.3,94,93,91,30.17,29.56,0,0,0,0.01
2013-11-10,36.9,29.4,19.1,29.4,25.5,14.8,91,86,74,30.21,30.06,9,2,9,0.20
2013-11-11,18.7,12.3,5.0,9.6,6.4,0.1,92,77,69,30.67,30.17,5,1,6,0.00
2013-11-12,32.2,17.6,2.0,16.7,9.2,-1.7,88,71,51,30.67,30.16,6,1,6,0.05
2013-11-13,45.7,33.9,20.6,35.0,27.2,14.4,88,77,63,30.16,29.74,7,1,7,0.03
2013-11-14,40.7,34.4,29.9,33.1,30.3,26.7,92,85,71,29.77,29.68,2,0,2,0.01
2013-11-15,47.0,37.4,26.9,36.7,32.7,24.1,93,84,60,29.72,29.43,7,0,7,0.02
2013-11-16,44.8,39.5,33.6,39.7,36.0,30.7,93,87,80,29.43,29.24,8,0,8,0.13
2013-11-17,39.2,31.5,21.8,37.3,29.3,18.5,94,91,86,29.78,29.24,9,2,9,0.29
2013-11-18,24.1,21.6,19.8,19.4,17.4,15.6,88,84,79,30.16,29.79,7,2,7,0.00
2013-11-19,41.3,29.6,20.3,33.1,24.0,17.0,89,80,70,30.15,29.62,10,2,10,0.00
2013-11-20,42.4,35.5,27.8,33.1,29.6,25.0,90,79,68,30.02,29.62,10,1,10,0.00
2013-11-21,27.8,16.0,5.0,25.0,11.6,0.9,89,83,74,30.51,30.02,8,2,8,0.00
2013-11-22,15.7,7.5,-0.6,11.1,2.6,-4.8,85,80,66,30.67,30.36,9,2,9,0.00
2013-11-23,8.5,-0.2,-6.8,1.8,-5.1,-11.1,85,79,68,30.80,30.55,6,1,6,0.00
2013-11-24,37.3,21.0,1.3,27.4,13.5,-2.4,86,73,63,30.54,29.67,12,2,12,0.01
2013-11-25,34.4,28.7,18.8,28.3,23.0,13.6,85,79,67,30.02,29.69,13,3,13,0.01
2013-11-26,18.8,12.3,8.6,16.7,6.7,4.2,92,78,68,30.36,30.01,7,2,8,0.00
2013-11-27,15.4,11.5,2.8,13.2,7.7,-1.4,92,84,81,30.35,29.99,4,0,4,0.00
2013-11-28,19.0,13.0,1.3,12.6,8.5,-3.3,87,82,71,30.42,30.03,4,1,4,0.00
2013-11-29,27.2,15.7,-2.2,19.4,10.6,-6.5,89,80,69,30.41,29.96,8,0,11,0.00
2013-11-30,26.5,22.6,19.9,21.1,18.5,16.2,89,84,78,30.15,29.93,4,0,4,0.00
2013-12-1,22.0,18.1,10.5,19.0,15.1,6.6,98,88,82,30.15,29.86,2,0,2,0.00
2013-12-2,28.2,23.2,18.2,25.4,20.8,15.4,92,90,88,29.86,29.61,4,0,4,0.00
2013-12-3,27.8,24.8,20.2,25.8,22.6,17.5,92,91,89,29.88,29.66,4,0,4,0.00
2013-12-4,20.2,15.7,11.3,17.5,13.0,8.4,89,89,88,29.87,29.51,5,1,5,0.00
2013-12-5,11.3,2.6,-3.9,8.4,-1.6,-8.0,88,83,74,30.17,29.55,9,3,9,0.00
2013-12-6,-3.7,-10.9,-23.4,-8.1,-16.2,-28.8,83,77,71,30.47,30.16,5,1,5,0.00
2013-12-7,-5.7,-19.9,-32.9,-13.1,-25.7,-38.5,89,74,69,30.49,30.38,6,1,6,0.00
2013-12-8,1.9,-11.6,-31.5,-2.1,-16.4,-37.3,83,78,72,30.38,29.90,1,0,1,0.00
2013-12-9,-4.0,-10.5,-17.5,-8.1,-15.7,-23.0,92,77,68,29.91,29.74,6,1,6,0.00
2013-12-10,0.8,-10.3,-21.5,-6.2,-15.7,-26.9,83,77,70,30.22,29.74,5,1,5,0.00
2013-12-11,-3.2,-13.5,-28.8,-9.5,-19.4,-34.3,81,74,64,30.36,30.12,4,0,4,0.00
2013-12-12,8.2,-0.6,-11.8,2.7,-5.5,-17.0,90,79,74,30.16,30.09,4,0,4,0.00
2013-12-13,-1.0,-4.8,-7.5,-6.5,-11.6,-13.7,79,72,59,30.32,30.16,4,1,4,0.00
2013-12-14,4.6,-4.4,-19.9,-1.3,-9.9,-25.4,81,77,73,30.29,30.03,5,0,5,0.00
2013-12-15,-2.5,-14.3,-29.8,-10.5,-20.5,-35.5,81,73,61,30.11,29.96,4,0,4,0.00
2013-12-16,27.2,12.0,-4.2,24.4,7.3,-10.4,89,81,72,29.97,29.69,12,1,12,0.00
2013-12-17,27.2,9.8,-11.6,24.1,3.3,-16.8,88,75,57,30.01,29.71,12,3,12,0.00
2013-12-18,28.3,11.7,-8.5,19.8,6.3,-12.5,86,79,66,29.90,29.51,6,1,6,0.00
2013-12-19,8.5,-1.0,-7.7,3.1,-6.5,-12.1,92,77,69,30.16,29.88,5,1,5,0.00
2013-12-20,15.5,-4.0,-20.8,8.1,-9.5,-26.2,87,77,72,30.10,29.78,4,0,4,0.00
2013-12-21,6.5,3.9,-1.9,3.0,0.2,-6.3,92,84,81,29.96,29.80,0,0,1,0.00
2013-12-22,6.9,0.1,-9.8,3.1,-4.7,-14.8,85,80,74,30.28,29.93,4,1,5,0.00
2013-12-23,-3.0,-16.7,-30.4,-10.9,-23.3,-36.9,80,71,59,30.45,30.28,4,0,4,0.00
2013-12-24,7.5,-5.1,-31.4,3.9,-10.1,-37.7,92,78,65,30.33,29.93,7,1,7,0.00
2013-12-25,15.4,9.9,5.1,11.6,5.6,0.9,89,83,72,30.04,29.92,6,1,6,0.00
2013-12-26,18.1,6.8,-7.3,14.5,2.1,-11.8,94,81,72,30.06,29.98,2,0,2,0.00
2013-12-27,36.9,28.2,18.1,29.5,24.1,14.6,92,85,74,29.98,29.71,9,2,9,0.29
2013-12-28,28.5,17.6,-8.1,26.7,14.4,-13.1,93,87,78,30.24,29.73,10,2,10,0.00
2013-12-29,-8.3,-16.6,-25.2,-13.3,-23.2,-30.8,78,71,61,30.33,30.11,5,1,5,0.00
2013-12-30,0.1,-14.2,-28.1,-7.3,-20.1,-33.8,83,74,66,30.14,30.08,2,0,2,0.00
2013-12-31,-13.5,-21.7,-30.3,-19.7,-27.5,-36.0,80,74,69,30.36,30.08,4,0,4,0.00
2014-1-1,-5.2,-17.9,-28.7,-13.7,-24.3,-35.4,79,72,65,30.44,30.35,0,0,0,0.00
2014-1-2,-0.3,-20.2,-36.2,-11.3,-27.3,-42.4,80,69,58,30.43,30.11,2,0,2,0.00